sensor_id;sensor_type;location;lat;lon;timestamp;P1;durP1;ratioP1;P2;durP2;ratioP2
3267;SDS011;1646;52.450;13.326;2022-11-20T00:04:47;17.20;;;10.53;;
3267;SDS011;1646;52.450;13.326;2022-11-20T00:09:45;15.47;;;9.50;;
3267;SDS011;1646;52.450;13.326;2022-11-20T00:14:44;16.80;;;9.50;;
3267;SDS011;1646;52.450;13.326;2022-11-20T00:19:42;15.13;;;8.80;;
3267;SDS011;1646;52.450;13.326;2022-11-20T00:24:41;14.27;;;8.60;;
3267;SDS011;1646;52.450;13.326;2022-11-20T00:29:39;17.30;;;9.17;;
3267;SDS011;1646;52.450;13.326;2022-11-20T00:34:38;14.43;;;8.97;;
3267;SDS011;1646;52.450;13.326;2022-11-20T00:39:36;17.53;;;9.60;;
3267;SDS011;1646;52.450;13.326;2022-11-20T00:44:34;17.87;;;10.10;;
3267;SDS011;1646;52.450;13.326;2022-11-20T00:49:32;16.73;;;9.70;;
3267;SDS011;1646;52.450;13.326;2022-11-20T00:54:31;14.97;;;9.37;;
3267;SDS011;1646;52.450;13.326;2022-11-20T00:59:30;19.60;;;9.90;;
3267;SDS011;1646;52.450;13.326;2022-11-20T01:04:28;17.70;;;9.70;;
3267;SDS011;1646;52.450;13.326;2022-11-20T01:09:26;15.90;;;10.23;;
3267;SDS011;1646;52.450;13.326;2022-11-20T01:14:25;19.40;;;10.77;;
3267;SDS011;1646;52.450;13.326;2022-11-20T01:19:23;18.23;;;10.50;;
3267;SDS011;1646;52.450;13.326;2022-11-20T01:24:21;21.57;;;10.60;;
3267;SDS011;1646;52.450;13.326;2022-11-20T01:29:20;25.73;;;11.10;;
3267;SDS011;1646;52.450;13.326;2022-11-20T01:34:21;18.63;;;9.93;;
3267;SDS011;1646;52.450;13.326;2022-11-20T01:39:20;19.03;;;9.90;;
3267;SDS011;1646;52.450;13.326;2022-11-20T01:44:21;17.93;;;10.17;;
3267;SDS011;1646;52.450;13.326;2022-11-20T01:49:42;20.87;;;11.20;;
3267;SDS011;1646;52.450;13.326;2022-11-20T01:54:44;24.90;;;10.40;;
3267;SDS011;1646;52.450;13.326;2022-11-20T01:59:47;18.60;;;10.30;;
3267;SDS011;1646;52.450;13.326;2022-11-20T02:04:50;17.23;;;10.20;;
3267;SDS011;1646;52.450;13.326;2022-11-20T02:09:51;22.47;;;11.90;;
3267;SDS011;1646;52.450;13.326;2022-11-20T02:14:54;18.43;;;10.60;;
3267;SDS011;1646;52.450;13.326;2022-11-20T02:19:53;19.87;;;9.70;;
3267;SDS011;1646;52.450;13.326;2022-11-20T02:24:53;19.10;;;10.27;;
3267;SDS011;1646;52.450;13.326;2022-11-20T02:29:51;18.13;;;9.67;;
3267;SDS011;1646;52.450;13.326;2022-11-20T02:34:52;17.07;;;9.90;;
3267;SDS011;1646;52.450;13.326;2022-11-20T02:39:51;20.67;;;11.07;;
3267;SDS011;1646;52.450;13.326;2022-11-20T02:44:50;17.90;;;10.17;;
3267;SDS011;1646;52.450;13.326;2022-11-20T02:49:48;17.23;;;9.33;;
3267;SDS011;1646;52.450;13.326;2022-11-20T02:54:46;21.37;;;10.53;;
3267;SDS011;1646;52.450;13.326;2022-11-20T02:59:46;22.20;;;11.50;;
3267;SDS011;1646;52.450;13.326;2022-11-20T03:04:44;19.77;;;10.00;;
3267;SDS011;1646;52.450;13.326;2022-11-20T03:09:42;20.83;;;12.10;;
3267;SDS011;1646;52.450;13.326;2022-11-20T03:14:40;19.53;;;11.20;;
3267;SDS011;1646;52.450;13.326;2022-11-20T03:19:40;23.87;;;11.97;;
3267;SDS011;1646;52.450;13.326;2022-11-20T03:24:38;20.57;;;10.57;;
3267;SDS011;1646;52.450;13.326;2022-11-20T03:29:36;32.30;;;11.37;;
3267;SDS011;1646;52.450;13.326;2022-11-20T03:34:34;21.33;;;11.93;;
3267;SDS011;1646;52.450;13.326;2022-11-20T03:39:33;25.70;;;12.20;;
3267;SDS011;1646;52.450;13.326;2022-11-20T03:44:31;21.30;;;11.37;;
3267;SDS011;1646;52.450;13.326;2022-11-20T03:49:29;20.47;;;11.60;;
3267;SDS011;1646;52.450;13.326;2022-11-20T03:54:27;19.17;;;10.50;;
3267;SDS011;1646;52.450;13.326;2022-11-20T03:59:27;24.60;;;11.73;;
3267;SDS011;1646;52.450;13.326;2022-11-20T04:04:25;22.57;;;11.33;;
3267;SDS011;1646;52.450;13.326;2022-11-20T04:09:23;21.77;;;12.20;;
3267;SDS011;1646;52.450;13.326;2022-11-20T04:14:21;19.03;;;10.73;;
3267;SDS011;1646;52.450;13.326;2022-11-20T04:19:21;27.00;;;13.93;;
3267;SDS011;1646;52.450;13.326;2022-11-20T04:24:19;22.83;;;11.80;;
3267;SDS011;1646;52.450;13.326;2022-11-20T04:29:17;26.50;;;11.93;;
3267;SDS011;1646;52.450;13.326;2022-11-20T04:34:16;21.23;;;11.10;;
3267;SDS011;1646;52.450;13.326;2022-11-20T04:39:15;22.10;;;11.13;;
3267;SDS011;1646;52.450;13.326;2022-11-20T04:44:14;25.00;;;11.00;;
3267;SDS011;1646;52.450;13.326;2022-11-20T04:49:12;20.17;;;11.70;;
3267;SDS011;1646;52.450;13.326;2022-11-20T04:54:10;25.60;;;12.13;;
3267;SDS011;1646;52.450;13.326;2022-11-20T04:59:10;25.10;;;12.20;;
3267;SDS011;1646;52.450;13.326;2022-11-20T05:04:08;23.63;;;12.13;;
3267;SDS011;1646;52.450;13.326;2022-11-20T05:09:06;22.93;;;12.07;;
3267;SDS011;1646;52.450;13.326;2022-11-20T05:14:04;24.93;;;12.50;;
3267;SDS011;1646;52.450;13.326;2022-11-20T05:19:04;20.60;;;11.93;;
3267;SDS011;1646;52.450;13.326;2022-11-20T05:24:02;23.57;;;12.10;;
3267;SDS011;1646;52.450;13.326;2022-11-20T05:29:00;23.37;;;12.40;;
3267;SDS011;1646;52.450;13.326;2022-11-20T05:33:59;24.77;;;12.27;;
3267;SDS011;1646;52.450;13.326;2022-11-20T05:38:58;27.07;;;13.33;;
3267;SDS011;1646;52.450;13.326;2022-11-20T05:43:57;27.10;;;13.30;;
3267;SDS011;1646;52.450;13.326;2022-11-20T05:48:56;22.33;;;11.77;;
3267;SDS011;1646;52.450;13.326;2022-11-20T05:53:56;23.23;;;12.50;;
3267;SDS011;1646;52.450;13.326;2022-11-20T05:58:56;20.70;;;11.20;;
3267;SDS011;1646;52.450;13.326;2022-11-20T06:03:54;21.17;;;10.87;;
3267;SDS011;1646;52.450;13.326;2022-11-20T06:08:52;24.70;;;12.30;;
3267;SDS011;1646;52.450;13.326;2022-11-20T06:13:50;23.80;;;12.57;;
3267;SDS011;1646;52.450;13.326;2022-11-20T06:18:50;20.93;;;11.17;;
3267;SDS011;1646;52.450;13.326;2022-11-20T06:23:48;25.73;;;12.53;;
3267;SDS011;1646;52.450;13.326;2022-11-20T06:28:47;26.17;;;12.60;;
3267;SDS011;1646;52.450;13.326;2022-11-20T06:33:45;25.70;;;12.77;;
3267;SDS011;1646;52.450;13.326;2022-11-20T06:38:45;22.90;;;12.20;;
3267;SDS011;1646;52.450;13.326;2022-11-20T06:43:44;22.90;;;11.30;;
3267;SDS011;1646;52.450;13.326;2022-11-20T06:48:42;20.80;;;11.10;;
3267;SDS011;1646;52.450;13.326;2022-11-20T06:53:41;30.37;;;14.20;;
3267;SDS011;1646;52.450;13.326;2022-11-20T06:58:41;23.57;;;12.70;;
3267;SDS011;1646;52.450;13.326;2022-11-20T07:03:39;26.00;;;12.67;;
3267;SDS011;1646;52.450;13.326;2022-11-20T07:08:37;25.20;;;12.67;;
3267;SDS011;1646;52.450;13.326;2022-11-20T07:13:35;21.13;;;11.60;;
3267;SDS011;1646;52.450;13.326;2022-11-20T07:18:35;24.70;;;12.67;;
3267;SDS011;1646;52.450;13.326;2022-11-20T07:23:34;24.80;;;12.60;;
3267;SDS011;1646;52.450;13.326;2022-11-20T07:28:32;28.43;;;11.70;;
3267;SDS011;1646;52.450;13.326;2022-11-20T07:33:31;21.10;;;11.67;;
3267;SDS011;1646;52.450;13.326;2022-11-20T07:38:30;22.53;;;12.20;;
3267;SDS011;1646;52.450;13.326;2022-11-20T07:43:29;25.03;;;12.87;;
3267;SDS011;1646;52.450;13.326;2022-11-20T07:48:32;25.63;;;11.13;;
3267;SDS011;1646;52.450;13.326;2022-11-20T07:53:31;27.63;;;12.50;;
3267;SDS011;1646;52.450;13.326;2022-11-20T07:58:29;25.43;;;13.13;;
3267;SDS011;1646;52.450;13.326;2022-11-20T08:03:29;28.10;;;12.90;;
3267;SDS011;1646;52.450;13.326;2022-11-20T08:08:27;25.67;;;12.73;;
3267;SDS011;1646;52.450;13.326;2022-11-20T08:13:30;32.33;;;13.57;;
3267;SDS011;1646;52.450;13.326;2022-11-20T08:18:48;26.50;;;12.13;;
3267;SDS011;1646;52.450;13.326;2022-11-20T08:23:46;23.70;;;12.30;;
3267;SDS011;1646;52.450;13.326;2022-11-20T08:28:46;26.63;;;13.30;;
3267;SDS011;1646;52.450;13.326;2022-11-20T08:33:44;22.50;;;12.20;;
3267;SDS011;1646;52.450;13.326;2022-11-20T08:38:42;24.50;;;14.00;;
3267;SDS011;1646;52.450;13.326;2022-11-20T08:43:45;29.80;;;13.23;;
3267;SDS011;1646;52.450;13.326;2022-11-20T08:48:43;27.30;;;13.50;;
3267;SDS011;1646;52.450;13.326;2022-11-20T08:53:42;24.70;;;12.90;;
3267;SDS011;1646;52.450;13.326;2022-11-20T08:58:40;25.40;;;12.73;;
3267;SDS011;1646;52.450;13.326;2022-11-20T09:03:59;22.90;;;11.93;;
3267;SDS011;1646;52.450;13.326;2022-11-20T09:08:57;25.07;;;13.80;;
3267;SDS011;1646;52.450;13.326;2022-11-20T09:14:02;21.80;;;12.17;;
3267;SDS011;1646;52.450;13.326;2022-11-20T09:19:02;23.17;;;12.37;;
3267;SDS011;1646;52.450;13.326;2022-11-20T09:24:20;23.17;;;13.47;;
3267;SDS011;1646;52.450;13.326;2022-11-20T09:29:18;29.10;;;13.43;;
3267;SDS011;1646;52.450;13.326;2022-11-20T09:34:17;24.63;;;12.60;;
3267;SDS011;1646;52.450;13.326;2022-11-20T09:39:16;22.33;;;12.17;;
3267;SDS011;1646;52.450;13.326;2022-11-20T09:44:18;22.20;;;11.53;;
3267;SDS011;1646;52.450;13.326;2022-11-20T09:49:36;23.67;;;12.87;;
3267;SDS011;1646;52.450;13.326;2022-11-20T09:54:53;22.10;;;11.47;;
3267;SDS011;1646;52.450;13.326;2022-11-20T09:59:53;25.83;;;12.80;;
3267;SDS011;1646;52.450;13.326;2022-11-20T10:04:59;22.00;;;11.30;;
3267;SDS011;1646;52.450;13.326;2022-11-20T10:10:01;28.00;;;13.63;;
3267;SDS011;1646;52.450;13.326;2022-11-20T10:15:03;23.73;;;12.40;;
3267;SDS011;1646;52.450;13.326;2022-11-20T10:20:14;23.03;;;12.73;;
3267;SDS011;1646;52.450;13.326;2022-11-20T10:25:18;23.23;;;13.50;;
3267;SDS011;1646;52.450;13.326;2022-11-20T10:30:18;26.87;;;13.50;;
3267;SDS011;1646;52.450;13.326;2022-11-20T10:35:21;23.67;;;12.63;;
3267;SDS011;1646;52.450;13.326;2022-11-20T10:40:24;23.00;;;12.70;;
3267;SDS011;1646;52.450;13.326;2022-11-20T10:45:34;25.67;;;12.87;;
3267;SDS011;1646;52.450;13.326;2022-11-20T10:50:44;27.80;;;14.37;;
3267;SDS011;1646;52.450;13.326;2022-11-20T10:55:53;25.13;;;13.07;;
3267;SDS011;1646;52.450;13.326;2022-11-20T11:01:02;24.33;;;12.80;;
3267;SDS011;1646;52.450;13.326;2022-11-20T11:06:03;24.40;;;13.03;;
3267;SDS011;1646;52.450;13.326;2022-11-20T11:11:12;22.90;;;12.20;;
3267;SDS011;1646;52.450;13.326;2022-11-20T11:16:20;25.67;;;12.80;;
3267;SDS011;1646;52.450;13.326;2022-11-20T11:21:22;21.53;;;11.40;;
3267;SDS011;1646;52.450;13.326;2022-11-20T11:26:23;23.13;;;12.00;;
3267;SDS011;1646;52.450;13.326;2022-11-20T11:31:22;25.33;;;11.70;;
3267;SDS011;1646;52.450;13.326;2022-11-20T11:36:23;19.87;;;10.87;;
3267;SDS011;1646;52.450;13.326;2022-11-20T11:41:22;24.10;;;11.60;;
3267;SDS011;1646;52.450;13.326;2022-11-20T11:46:27;18.70;;;10.77;;
3267;SDS011;1646;52.450;13.326;2022-11-20T11:51:32;20.13;;;9.73;;
3267;SDS011;1646;52.450;13.326;2022-11-20T11:56:33;25.40;;;10.57;;
3267;SDS011;1646;52.450;13.326;2022-11-20T12:01:32;22.63;;;10.83;;
3267;SDS011;1646;52.450;13.326;2022-11-20T12:06:38;23.60;;;11.10;;
3267;SDS011;1646;52.450;13.326;2022-11-20T12:11:42;21.17;;;9.77;;
3267;SDS011;1646;52.450;13.326;2022-11-20T12:16:44;19.57;;;10.40;;
3267;SDS011;1646;52.450;13.326;2022-11-20T12:21:46;31.03;;;14.33;;
3267;SDS011;1646;52.450;13.326;2022-11-20T12:27:01;26.00;;;11.57;;
3267;SDS011;1646;52.450;13.326;2022-11-20T12:32:14;22.37;;;10.20;;
3267;SDS011;1646;52.450;13.326;2022-11-20T12:37:33;22.87;;;8.50;;
3267;SDS011;1646;52.450;13.326;2022-11-20T12:42:44;13.23;;;7.20;;
3267;SDS011;1646;52.450;13.326;2022-11-20T12:48:19;12.57;;;6.20;;
3267;SDS011;1646;52.450;13.326;2022-11-20T12:53:43;10.17;;;5.93;;
3267;SDS011;1646;52.450;13.326;2022-11-20T12:59:02;12.27;;;6.77;;
3267;SDS011;1646;52.450;13.326;2022-11-20T13:04:16;12.57;;;7.13;;
3267;SDS011;1646;52.450;13.326;2022-11-20T13:09:25;15.00;;;8.50;;
3267;SDS011;1646;52.450;13.326;2022-11-20T13:14:27;11.67;;;7.00;;
3267;SDS011;1646;52.450;13.326;2022-11-20T13:19:31;13.83;;;7.23;;
3267;SDS011;1646;52.450;13.326;2022-11-20T13:24:31;15.97;;;6.60;;
3267;SDS011;1646;52.450;13.326;2022-11-20T13:29:30;13.30;;;6.33;;
3267;SDS011;1646;52.450;13.326;2022-11-20T13:34:28;15.83;;;8.40;;
3267;SDS011;1646;52.450;13.326;2022-11-20T13:39:26;15.80;;;8.10;;
3267;SDS011;1646;52.450;13.326;2022-11-20T13:44:29;17.10;;;8.50;;
3267;SDS011;1646;52.450;13.326;2022-11-20T13:49:34;15.80;;;7.60;;
3267;SDS011;1646;52.450;13.326;2022-11-20T13:54:47;14.43;;;7.97;;
3267;SDS011;1646;52.450;13.326;2022-11-20T13:59:56;15.23;;;7.80;;
3267;SDS011;1646;52.450;13.326;2022-11-20T14:04:56;16.33;;;9.13;;
3267;SDS011;1646;52.450;13.326;2022-11-20T14:09:57;14.03;;;8.07;;
3267;SDS011;1646;52.450;13.326;2022-11-20T14:14:57;15.40;;;7.90;;
3267;SDS011;1646;52.450;13.326;2022-11-20T14:19:57;14.40;;;7.80;;
3267;SDS011;1646;52.450;13.326;2022-11-20T14:25:03;13.33;;;7.83;;
3267;SDS011;1646;52.450;13.326;2022-11-20T14:30:05;13.53;;;7.23;;
3267;SDS011;1646;52.450;13.326;2022-11-20T14:35:10;12.33;;;6.73;;
3267;SDS011;1646;52.450;13.326;2022-11-20T14:40:21;11.27;;;6.00;;
3267;SDS011;1646;52.450;13.326;2022-11-20T14:45:26;11.43;;;6.80;;
3267;SDS011;1646;52.450;13.326;2022-11-20T14:50:26;14.77;;;7.07;;
3267;SDS011;1646;52.450;13.326;2022-11-20T14:55:30;14.13;;;7.93;;
3267;SDS011;1646;52.450;13.326;2022-11-20T15:00:31;13.17;;;8.00;;
3267;SDS011;1646;52.450;13.326;2022-11-20T15:05:44;12.70;;;7.47;;
3267;SDS011;1646;52.450;13.326;2022-11-20T15:10:46;10.83;;;6.97;;
3267;SDS011;1646;52.450;13.326;2022-11-20T15:15:47;16.43;;;7.70;;
3267;SDS011;1646;52.450;13.326;2022-11-20T15:20:47;13.60;;;7.13;;
3267;SDS011;1646;52.450;13.326;2022-11-20T15:25:45;15.60;;;7.70;;
3267;SDS011;1646;52.450;13.326;2022-11-20T15:30:44;14.03;;;7.37;;
3267;SDS011;1646;52.450;13.326;2022-11-20T15:35:45;16.30;;;8.10;;
3267;SDS011;1646;52.450;13.326;2022-11-20T15:40:43;15.30;;;9.43;;
3267;SDS011;1646;52.450;13.326;2022-11-20T15:45:42;12.90;;;8.10;;
3267;SDS011;1646;52.450;13.326;2022-11-20T15:50:47;16.37;;;8.33;;
3267;SDS011;1646;52.450;13.326;2022-11-20T15:55:49;16.23;;;8.17;;
3267;SDS011;1646;52.450;13.326;2022-11-20T16:00:48;13.30;;;8.03;;
3267;SDS011;1646;52.450;13.326;2022-11-20T16:05:47;15.27;;;8.27;;
3267;SDS011;1646;52.450;13.326;2022-11-20T16:10:45;11.43;;;6.37;;
3267;SDS011;1646;52.450;13.326;2022-11-20T16:15:43;16.07;;;7.97;;
3267;SDS011;1646;52.450;13.326;2022-11-20T16:20:48;16.43;;;8.03;;
3267;SDS011;1646;52.450;13.326;2022-11-20T16:25:48;18.23;;;9.40;;
3267;SDS011;1646;52.450;13.326;2022-11-20T16:30:47;16.23;;;8.67;;
3267;SDS011;1646;52.450;13.326;2022-11-20T16:35:45;18.43;;;9.43;;
3267;SDS011;1646;52.450;13.326;2022-11-20T16:40:45;18.10;;;9.13;;
3267;SDS011;1646;52.450;13.326;2022-11-20T16:45:43;17.97;;;9.33;;
3267;SDS011;1646;52.450;13.326;2022-11-20T16:50:45;22.93;;;10.23;;
3267;SDS011;1646;52.450;13.326;2022-11-20T16:55:46;23.00;;;11.63;;
3267;SDS011;1646;52.450;13.326;2022-11-20T17:00:45;17.90;;;9.97;;
3267;SDS011;1646;52.450;13.326;2022-11-20T17:05:48;19.13;;;10.67;;
3267;SDS011;1646;52.450;13.326;2022-11-20T17:10:46;22.40;;;11.43;;
3267;SDS011;1646;52.450;13.326;2022-11-20T17:15:44;29.00;;;13.60;;
3267;SDS011;1646;52.450;13.326;2022-11-20T17:20:46;26.40;;;13.10;;
3267;SDS011;1646;52.450;13.326;2022-11-20T17:25:49;24.13;;;13.37;;
3267;SDS011;1646;52.450;13.326;2022-11-20T17:30:47;30.53;;;14.07;;
3267;SDS011;1646;52.450;13.326;2022-11-20T17:35:45;18.93;;;11.27;;
3267;SDS011;1646;52.450;13.326;2022-11-20T17:40:45;18.67;;;11.40;;
3267;SDS011;1646;52.450;13.326;2022-11-20T17:45:43;24.83;;;11.37;;
3267;SDS011;1646;52.450;13.326;2022-11-20T17:50:41;21.93;;;10.97;;
3267;SDS011;1646;52.450;13.326;2022-11-20T17:55:39;23.87;;;10.17;;
3267;SDS011;1646;52.450;13.326;2022-11-20T18:00:56;20.70;;;10.57;;
3267;SDS011;1646;52.450;13.326;2022-11-20T18:06:06;21.93;;;10.67;;
3267;SDS011;1646;52.450;13.326;2022-11-20T18:11:09;22.63;;;11.53;;
3267;SDS011;1646;52.450;13.326;2022-11-20T18:16:09;16.03;;;9.80;;
3267;SDS011;1646;52.450;13.326;2022-11-20T18:21:08;16.30;;;9.20;;
3267;SDS011;1646;52.450;13.326;2022-11-20T18:26:06;23.97;;;12.40;;
3267;SDS011;1646;52.450;13.326;2022-11-20T18:31:04;22.10;;;11.10;;
3267;SDS011;1646;52.450;13.326;2022-11-20T18:36:11;23.93;;;11.93;;
3267;SDS011;1646;52.450;13.326;2022-11-20T18:41:10;21.70;;;12.27;;
3267;SDS011;1646;52.450;13.326;2022-11-20T18:46:29;29.73;;;12.97;;
3267;SDS011;1646;52.450;13.326;2022-11-20T18:51:29;23.37;;;12.80;;
3267;SDS011;1646;52.450;13.326;2022-11-20T18:56:27;22.73;;;10.73;;
3267;SDS011;1646;52.450;13.326;2022-11-20T19:01:25;19.70;;;11.60;;
3267;SDS011;1646;52.450;13.326;2022-11-20T19:06:24;22.67;;;9.90;;
3267;SDS011;1646;52.450;13.326;2022-11-20T19:11:23;18.70;;;10.50;;
3267;SDS011;1646;52.450;13.326;2022-11-20T19:16:21;23.93;;;13.03;;
3267;SDS011;1646;52.450;13.326;2022-11-20T19:21:21;23.20;;;10.70;;
3267;SDS011;1646;52.450;13.326;2022-11-20T19:26:20;26.40;;;13.67;;
3267;SDS011;1646;52.450;13.326;2022-11-20T19:31:20;18.80;;;11.10;;
3267;SDS011;1646;52.450;13.326;2022-11-20T19:36:22;25.70;;;13.10;;
3267;SDS011;1646;52.450;13.326;2022-11-20T19:41:22;26.43;;;14.23;;
3267;SDS011;1646;52.450;13.326;2022-11-20T19:46:25;21.40;;;11.23;;
3267;SDS011;1646;52.450;13.326;2022-11-20T19:51:25;22.10;;;12.30;;
3267;SDS011;1646;52.450;13.326;2022-11-20T19:56:26;22.03;;;10.87;;
3267;SDS011;1646;52.450;13.326;2022-11-20T20:01:27;23.53;;;11.67;;
3267;SDS011;1646;52.450;13.326;2022-11-20T20:06:27;20.80;;;11.20;;
3267;SDS011;1646;52.450;13.326;2022-11-20T20:11:26;26.53;;;11.97;;
3267;SDS011;1646;52.450;13.326;2022-11-20T20:16:26;22.97;;;11.17;;
3267;SDS011;1646;52.450;13.326;2022-11-20T20:21:24;24.10;;;12.33;;
3267;SDS011;1646;52.450;13.326;2022-11-20T20:26:23;24.07;;;11.60;;
3267;SDS011;1646;52.450;13.326;2022-11-20T20:31:23;23.40;;;11.73;;
3267;SDS011;1646;52.450;13.326;2022-11-20T20:36:24;22.47;;;11.83;;
3267;SDS011;1646;52.450;13.326;2022-11-20T20:41:22;21.33;;;11.20;;
3267;SDS011;1646;52.450;13.326;2022-11-20T20:46:21;22.03;;;11.50;;
3267;SDS011;1646;52.450;13.326;2022-11-20T20:51:19;20.87;;;12.40;;
3267;SDS011;1646;52.450;13.326;2022-11-20T20:56:19;23.43;;;13.07;;
3267;SDS011;1646;52.450;13.326;2022-11-20T21:01:17;27.57;;;12.30;;
3267;SDS011;1646;52.450;13.326;2022-11-20T21:06:16;25.77;;;12.60;;
3267;SDS011;1646;52.450;13.326;2022-11-20T21:11:14;19.77;;;10.67;;
3267;SDS011;1646;52.450;13.326;2022-11-20T21:16:16;20.10;;;11.70;;
3267;SDS011;1646;52.450;13.326;2022-11-20T21:21:16;20.87;;;11.50;;
3267;SDS011;1646;52.450;13.326;2022-11-20T21:26:32;25.60;;;12.40;;
3267;SDS011;1646;52.450;13.326;2022-11-20T21:31:31;24.73;;;11.97;;
3267;SDS011;1646;52.450;13.326;2022-11-20T21:36:30;25.37;;;12.37;;
3267;SDS011;1646;52.450;13.326;2022-11-20T21:41:28;22.60;;;11.77;;
3267;SDS011;1646;52.450;13.326;2022-11-20T21:46:27;23.30;;;12.00;;
3267;SDS011;1646;52.450;13.326;2022-11-20T21:51:26;29.13;;;13.80;;
3267;SDS011;1646;52.450;13.326;2022-11-20T21:56:25;24.87;;;12.40;;
3267;SDS011;1646;52.450;13.326;2022-11-20T22:01:24;23.73;;;11.80;;
3267;SDS011;1646;52.450;13.326;2022-11-20T22:06:24;25.63;;;12.13;;
3267;SDS011;1646;52.450;13.326;2022-11-20T22:11:27;26.17;;;11.97;;
3267;SDS011;1646;52.450;13.326;2022-11-20T22:16:25;24.23;;;12.67;;
3267;SDS011;1646;52.450;13.326;2022-11-20T22:21:24;23.90;;;12.70;;
3267;SDS011;1646;52.450;13.326;2022-11-20T22:26:25;24.77;;;12.33;;
3267;SDS011;1646;52.450;13.326;2022-11-20T22:31:24;27.00;;;12.63;;
3267;SDS011;1646;52.450;13.326;2022-11-20T22:36:24;25.17;;;12.60;;
3267;SDS011;1646;52.450;13.326;2022-11-20T22:41:25;32.97;;;13.23;;
3267;SDS011;1646;52.450;13.326;2022-11-20T22:46:25;28.97;;;14.03;;
3267;SDS011;1646;52.450;13.326;2022-11-20T22:51:25;30.97;;;14.27;;
3267;SDS011;1646;52.450;13.326;2022-11-20T22:56:25;39.50;;;15.60;;
3267;SDS011;1646;52.450;13.326;2022-11-20T23:01:24;33.83;;;14.43;;
3267;SDS011;1646;52.450;13.326;2022-11-20T23:06:23;44.50;;;14.73;;
3267;SDS011;1646;52.450;13.326;2022-11-20T23:11:22;27.50;;;13.37;;
3267;SDS011;1646;52.450;13.326;2022-11-20T23:16:23;34.03;;;14.87;;
3267;SDS011;1646;52.450;13.326;2022-11-20T23:21:22;27.07;;;13.63;;
3267;SDS011;1646;52.450;13.326;2022-11-20T23:26:21;29.93;;;14.40;;
3267;SDS011;1646;52.450;13.326;2022-11-20T23:31:20;34.20;;;16.40;;
3267;SDS011;1646;52.450;13.326;2022-11-20T23:36:20;30.80;;;13.67;;
3267;SDS011;1646;52.450;13.326;2022-11-20T23:41:18;32.53;;;14.10;;
3267;SDS011;1646;52.450;13.326;2022-11-20T23:46:16;30.50;;;15.00;;
3267;SDS011;1646;52.450;13.326;2022-11-20T23:51:16;28.87;;;13.83;;
3267;SDS011;1646;52.450;13.326;2022-11-20T23:56:14;32.70;;;15.97;;
